Time;durP1;ratioP1;P1;durP2;ratioP2;P2;SDS_P1;SDS_P2;PMS_P1;PMS_P2;Temp;Humidity;BMP_temperature;BMP_pressure;BME280_temperature;BME280_humidity;BME280_pressure;Samples;Min_cycle;Max_cycle;Signal;HPM_P1;HPM_P2
2021/05/09 00:02:05;;;;;;;2.97;2.20;;;12.70;59.10;;;;;;5080266;28;20034;-78
2021/05/09 00:04:31;;;;;;;3.97;2.20;;;12.70;58.20;;;;;;5080035;28;20032;-79
2021/05/09 00:06:57;;;;;;;4.53;2.08;;;12.70;57.80;;;;;;5081417;28;20020;-79
2021/05/09 00:09:23;;;;;;;5.28;2.10;;;12.80;58.80;;;;;;5083838;28;20024;-78
2021/05/09 00:11:48;;;;;;;2.63;1.90;;;12.80;57.80;;;;;;5084140;28;20039;-78
2021/05/09 00:14:14;;;;;;;5.40;2.05;;;12.90;57.20;;;;;;5081585;28;20051;-78
2021/05/09 00:16:40;;;;;;;4.57;2.00;;;12.90;57.40;;;;;;5083785;28;20103;-78
2021/05/09 00:19:05;;;;;;;5.75;2.42;;;12.90;57.00;;;;;;5080743;28;20076;-78
2021/05/09 00:21:31;;;;;;;3.80;2.05;;;12.80;57.50;;;;;;5083344;28;20479;-78
2021/05/09 00:23:56;;;;;;;4.80;2.45;;;12.90;56.80;;;;;;5083428;28;20032;-78
2021/05/09 00:26:22;;;;;;;5.00;2.30;;;12.90;57.00;;;;;;5077339;28;20103;-78
2021/05/09 00:28:47;;;;;;;4.85;2.17;;;12.90;57.20;;;;;;5076480;28;20086;-78
2021/05/09 00:31:12;;;;;;;3.70;2.22;;;12.80;57.60;;;;;;5079342;28;20032;-78
2021/05/09 00:33:38;;;;;;;3.63;1.95;;;12.90;57.70;;;;;;5083593;28;20039;-78
2021/05/09 00:36:04;;;;;;;4.55;2.20;;;12.80;57.70;;;;;;5084056;28;20062;-78
2021/05/09 00:38:29;;;;;;;2.88;1.75;;;12.90;57.20;;;;;;5086496;28;20020;-79
2021/05/09 00:40:58;;;;;;;4.00;2.10;;;12.80;58.30;;;;;;5087213;28;20085;-79
2021/05/09 00:43:23;;;;;;;7.30;2.30;;;12.80;58.20;;;;;;5085556;28;20482;-79
2021/05/09 00:45:49;;;;;;;4.35;2.35;;;12.80;58.20;;;;;;5086938;28;20039;-79
2021/05/09 00:48:16;;;;;;;4.97;2.70;;;12.90;58.60;;;;;;5084639;28;20110;-78
2021/05/09 00:50:42;;;;;;;3.63;2.17;;;12.80;57.80;;;;;;5086543;28;20040;-79
2021/05/09 00:53:10;;;;;;;4.47;2.35;;;12.80;58.90;;;;;;5085142;28;20064;-79
2021/05/09 00:55:37;;;;;;;3.38;2.10;;;12.80;58.30;;;;;;5084866;28;20110;-77
2021/05/09 00:58:03;;;;;;;5.53;2.00;;;12.80;59.20;;;;;;5081932;28;20036;-78
2021/05/09 01:00:42;;;;;;;3.80;2.00;;;12.80;59.00;;;;;;5083717;28;20072;-78
2021/05/09 01:03:09;;;;;;;2.20;1.80;;;12.90;58.10;;;;;;5079839;28;20115;-77
2021/05/09 01:05:35;;;;;;;4.90;2.42;;;12.90;58.20;;;;;;5087016;28;20104;-78
2021/05/09 01:08:04;;;;;;;3.72;2.28;;;12.90;57.90;;;;;;5086601;28;20174;-78
2021/05/09 01:10:31;;;;;;;4.95;2.33;;;13.00;58.30;;;;;;5084121;28;20031;-78
2021/05/09 01:12:56;;;;;;;4.32;2.25;;;13.00;59.00;;;;;;5086770;28;20064;-80
2021/05/09 01:15:23;;;;;;;4.20;2.35;;;12.90;58.40;;;;;;5084798;28;20488;-78
2021/05/09 01:17:48;;;;;;;3.78;2.00;;;12.90;58.10;;;;;;5085863;28;20092;-78
2021/05/09 01:20:14;;;;;;;3.10;1.90;;;12.90;58.60;;;;;;5084270;28;20632;-79
2021/05/09 01:22:41;;;;;;;3.85;2.13;;;13.00;58.70;;;;;;5078197;28;20026;-78
2021/05/09 01:25:07;;;;;;;3.65;2.38;;;13.00;59.00;;;;;;5075393;28;20024;-79
2021/05/09 01:27:33;;;;;;;3.10;1.77;;;13.00;58.30;;;;;;5081690;28;20067;-79
2021/05/09 01:29:59;;;;;;;3.10;2.00;;;13.00;58.10;;;;;;5079205;28;20134;-78
2021/05/09 01:32:24;;;;;;;3.00;2.05;;;13.00;57.80;;;;;;5085408;28;20932;-79
2021/05/09 01:34:50;;;;;;;3.10;2.15;;;13.10;58.20;;;;;;5085530;28;20032;-78
2021/05/09 01:37:15;;;;;;;4.88;2.60;;;13.10;58.70;;;;;;5079361;28;20032;-79
2021/05/09 01:39:41;;;;;;;3.42;2.17;;;13.00;59.00;;;;;;5081847;28;20407;-78
2021/05/09 01:42:07;;;;;;;2.78;1.77;;;13.00;58.90;;;;;;5082986;28;20483;-78
2021/05/09 01:44:32;;;;;;;3.72;2.13;;;13.00;58.50;;;;;;5084766;28;20879;-78
2021/05/09 01:46:58;;;;;;;2.22;1.60;;;13.00;59.70;;;;;;5085049;28;20545;-78
2021/05/09 01:49:23;;;;;;;2.58;1.73;;;12.90;58.70;;;;;;5083908;28;20416;-78
2021/05/09 01:51:49;;;;;;;3.85;2.08;;;13.00;59.40;;;;;;5085269;28;20040;-78
2021/05/09 01:54:15;;;;;;;3.00;2.15;;;13.00;58.50;;;;;;5084507;28;20054;-78
2021/05/09 01:56:41;;;;;;;3.65;2.50;;;13.00;58.70;;;;;;5085102;28;20024;-79
2021/05/09 01:59:08;;;;;;;3.33;2.22;;;13.00;59.30;;;;;;5079127;28;20036;-79
2021/05/09 02:01:35;;;;;;;3.05;2.20;;;12.90;59.80;;;;;;5078716;28;20013;-79
2021/05/09 02:04:00;;;;;;;2.20;1.73;;;13.00;59.00;;;;;;5081408;28;20693;-79
2021/05/09 02:06:26;;;;;;;2.65;1.98;;;13.00;59.70;;;;;;5079791;28;20020;-79
2021/05/09 02:08:52;;;;;;;6.45;2.50;;;13.00;59.80;;;;;;5086031;28;20028;-79
2021/05/09 02:11:18;;;;;;;3.17;1.90;;;13.00;59.50;;;;;;5083543;28;20441;-78
2021/05/09 02:13:43;;;;;;;3.60;2.00;;;13.00;59.00;;;;;;5084918;28;20028;-79
2021/05/09 02:16:09;;;;;;;7.30;2.42;;;13.00;59.60;;;;;;5083526;28;20034;-79
2021/05/09 02:18:35;;;;;;;3.53;2.10;;;13.00;60.00;;;;;;5084836;28;20020;-79
2021/05/09 02:21:01;;;;;;;4.97;2.13;;;13.00;60.30;;;;;;5085075;28;20381;-78
2021/05/09 02:23:32;;;;;;;2.55;1.90;;;13.00;59.50;;;;;;5082135;28;20040;-79
2021/05/09 02:25:58;;;;;;;3.42;2.55;;;13.00;60.00;;;;;;5080650;28;20028;-79
2021/05/09 02:28:23;;;;;;;3.95;1.80;;;13.00;60.00;;;;;;5081139;28;20084;-79
2021/05/09 02:30:52;;;;;;;5.35;2.17;;;13.00;60.30;;;;;;5084801;28;20226;-79
2021/05/09 02:33:17;;;;;;;2.72;2.05;;;12.90;60.70;;;;;;5082617;28;20024;-79
2021/05/09 02:35:42;;;;;;;2.28;1.90;;;12.90;60.50;;;;;;5085293;28;20043;-79
2021/05/09 02:38:08;;;;;;;3.30;2.00;;;12.90;60.20;;;;;;5079434;28;20043;-79
2021/05/09 02:40:34;;;;;;;4.85;2.08;;;13.00;60.10;;;;;;5081173;28;20016;-79
2021/05/09 02:42:59;;;;;;;2.90;1.80;;;13.00;59.60;;;;;;5084250;28;20639;-79
2021/05/09 02:45:25;;;;;;;2.67;1.98;;;13.00;60.20;;;;;;5082348;28;20027;-79
2021/05/09 02:47:50;;;;;;;5.20;2.30;;;12.90;60.60;;;;;;5084939;28;20081;-79
2021/05/09 02:50:16;;;;;;;4.15;2.67;;;12.90;61.10;;;;;;5082775;28;20039;-79
2021/05/09 02:52:42;;;;;;;3.38;2.22;;;12.90;62.20;;;;;;5082286;28;20032;-78
2021/05/09 02:55:09;;;;;;;6.35;2.25;;;12.90;60.90;;;;;;5079451;28;20494;-78
2021/05/09 02:57:35;;;;;;;5.57;1.95;;;12.90;61.40;;;;;;5077045;28;20502;-78
2021/05/09 03:00:03;;;;;;;4.18;2.15;;;12.90;61.20;;;;;;5080656;28;20027;-79
2021/05/09 03:02:29;;;;;;;3.00;2.17;;;12.80;61.00;;;;;;5080028;28;20535;-79
2021/05/09 03:04:55;;;;;;;4.53;2.10;;;12.80;62.50;;;;;;5084001;28;20034;-79
2021/05/09 03:07:20;;;;;;;3.47;1.80;;;12.80;61.60;;;;;;5083166;28;20077;-78
2021/05/09 03:09:45;;;;;;;6.70;2.05;;;12.90;60.90;;;;;;5084317;28;20020;-78
2021/05/09 03:12:11;;;;;;;4.75;2.20;;;12.90;62.90;;;;;;5081704;28;20428;-78
2021/05/09 03:14:36;;;;;;;2.80;1.80;;;12.90;61.40;;;;;;5078565;28;20024;-78
2021/05/09 03:17:02;;;;;;;2.75;1.95;;;12.90;62.20;;;;;;5080178;28;20103;-78
2021/05/09 03:19:27;;;;;;;4.07;2.17;;;12.80;61.80;;;;;;5078591;28;20016;-78
2021/05/09 03:21:53;;;;;;;4.78;1.95;;;12.80;62.10;;;;;;5078296;28;20035;-79
2021/05/09 03:24:18;;;;;;;2.60;1.77;;;12.70;64.30;;;;;;5082222;28;20020;-78
2021/05/09 03:26:44;;;;;;;4.75;1.90;;;12.60;62.90;;;;;;5084334;28;20024;-78
2021/05/09 03:29:09;;;;;;;1.88;1.60;;;12.70;62.90;;;;;;5081420;28;20032;-78
2021/05/09 03:31:35;;;;;;;4.15;1.83;;;12.60;63.80;;;;;;5084589;28;20024;-79
2021/05/09 03:34:01;;;;;;;2.63;1.88;;;12.60;63.30;;;;;;5083921;28;20069;-78
2021/05/09 03:36:27;;;;;;;3.72;1.77;;;12.60;63.10;;;;;;5083194;28;20020;-79
2021/05/09 03:38:53;;;;;;;2.40;2.03;;;12.50;63.80;;;;;;5084998;28;20076;-79
2021/05/09 03:41:18;;;;;;;3.28;2.05;;;12.50;63.40;;;;;;5079236;28;20028;-80
2021/05/09 03:43:44;;;;;;;3.42;2.00;;;12.50;65.10;;;;;;5078993;28;20221;-79
2021/05/09 03:46:10;;;;;;;2.95;2.05;;;12.40;64.90;;;;;;5079122;28;20505;-79
2021/05/09 03:48:36;;;;;;;4.75;2.22;;;12.40;64.50;;;;;;5079951;28;20031;-79
2021/05/09 03:51:01;;;;;;;3.35;2.20;;;12.40;65.20;;;;;;5079127;28;20051;-79
2021/05/09 03:53:29;;;;;;;3.25;1.80;;;12.40;64.80;;;;;;5080845;28;20016;-79
2021/05/09 03:55:54;;;;;;;4.30;1.90;;;12.40;65.20;;;;;;5083116;28;20115;-79
2021/05/09 03:58:20;;;;;;;3.58;2.17;;;12.40;64.80;;;;;;5082085;28;20115;-79
2021/05/09 04:00:46;;;;;;;5.00;2.08;;;12.40;65.40;;;;;;5081410;28;20073;-79
2021/05/09 04:03:23;;;;;;;2.47;1.65;;;12.40;65.70;;;;;;5081271;28;20483;-78
2021/05/09 04:05:51;;;;;;;3.00;2.15;;;12.30;66.00;;;;;;5083137;28;20051;-77
2021/05/09 04:08:21;;;;;;;7.15;2.75;;;12.30;65.50;;;;;;5079942;28;20043;-78
2021/05/09 04:10:47;;;;;;;2.33;2.03;;;12.30;65.60;;;;;;5079536;28;20058;-78
2021/05/09 04:13:13;;;;;;;3.38;2.08;;;12.30;66.10;;;;;;5081647;28;20040;-78
2021/05/09 04:15:39;;;;;;;3.10;2.33;;;12.40;65.90;;;;;;5082373;28;20040;-78
2021/05/09 04:18:05;;;;;;;4.10;2.30;;;12.30;66.10;;;;;;5082181;28;20024;-78
2021/05/09 04:20:31;;;;;;;3.53;2.17;;;12.30;68.70;;;;;;5083812;28;20432;-78
2021/05/09 04:23:18;;;;;;;4.28;2.00;;;12.30;67.60;;;;;;5080969;28;20099;-78
2021/05/09 04:25:49;;;;;;;4.82;2.60;;;12.30;66.50;;;;;;5088441;28;20081;-78
2021/05/09 04:28:15;;;;;;;;;;;12.40;66.60;;;;;;5083406;28;20012;-78
2021/05/09 04:30:40;;;;;;;3.40;1.92;;;12.40;66.10;;;;;;5081208;28;20014;-78
2021/05/09 04:33:07;;;;;;;2.75;2.00;;;12.40;66.70;;;;;;5080607;28;20497;-78
2021/05/09 04:35:34;;;;;;;3.70;2.10;;;12.40;67.10;;;;;;5087835;28;20035;-78
2021/05/09 04:38:01;;;;;;;4.65;2.53;;;12.40;66.60;;;;;;5085106;28;20059;-78
2021/05/09 04:40:29;;;;;;;5.35;2.00;;;12.40;66.50;;;;;;5085357;28;20016;-78
2021/05/09 04:42:55;;;;;;;3.67;2.10;;;12.40;67.60;;;;;;5084399;28;20028;-78
2021/05/09 04:45:21;;;;;;;2.70;2.10;;;12.40;66.70;;;;;;5083639;28;20036;-78
2021/05/09 04:47:46;;;;;;;3.92;2.10;;;12.40;67.90;;;;;;5081685;28;20549;-79
2021/05/09 04:50:13;;;;;;;5.78;3.17;;;12.40;67.40;;;;;;5080317;28;20058;-78
2021/05/09 04:52:40;;;;;;;2.78;2.00;;;12.40;67.30;;;;;;5079660;28;20464;-78
2021/05/09 04:55:07;;;;;;;2.85;2.03;;;12.50;67.10;;;;;;5081549;28;20040;-78
2021/05/09 04:57:33;;;;;;;3.80;2.20;;;12.60;66.40;;;;;;5086827;28;20106;-79
2021/05/09 05:00:00;;;;;;;2.67;1.85;;;12.60;66.90;;;;;;5083877;28;20161;-79
2021/05/09 05:02:25;;;;;;;4.47;2.15;;;12.60;66.90;;;;;;5080998;28;20026;-78
2021/05/09 05:04:51;;;;;;;2.22;1.80;;;12.60;66.40;;;;;;5087419;28;20095;-79
2021/05/09 05:07:16;;;;;;;2.92;2.22;;;12.70;66.60;;;;;;5080712;28;20032;-72
2021/05/09 05:09:42;;;;;;;2.15;1.92;;;12.70;66.50;;;;;;5082457;28;20043;-72
2021/05/09 05:12:08;;;;;;;3.50;1.75;;;12.70;66.20;;;;;;5082185;28;20683;-72
2021/05/09 05:14:35;;;;;;;2.88;1.88;;;12.80;66.50;;;;;;5085560;28;20016;-73
2021/05/09 05:17:00;;;;;;;2.63;1.80;;;12.80;66.40;;;;;;5083190;28;20111;-73
2021/05/09 05:19:26;;;;;;;3.50;2.30;;;12.80;66.30;;;;;;5086654;28;20115;-73
2021/05/09 05:21:51;;;;;;;4.43;1.98;;;12.90;66.10;;;;;;5086037;28;20483;-72
2021/05/09 05:24:17;;;;;;;4.30;2.13;;;12.90;66.30;;;;;;5084322;28;20040;-74
2021/05/09 05:26:43;;;;;;;2.50;1.90;;;13.00;66.70;;;;;;5084529;28;20023;-73
2021/05/09 05:29:08;;;;;;;4.32;2.25;;;13.00;65.60;;;;;;5078742;28;20039;-72
2021/05/09 05:31:34;;;;;;;2.72;1.90;;;13.10;65.40;;;;;;5084562;28;20497;-73
2021/05/09 05:34:01;;;;;;;8.52;2.55;;;13.20;65.80;;;;;;5085926;28;20074;-73
2021/05/09 05:36:28;;;;;;;2.58;1.70;;;13.30;65.30;;;;;;5085064;28;20050;-72
2021/05/09 05:38:54;;;;;;;4.10;2.10;;;13.50;65.60;;;;;;5086157;28;20020;-73
2021/05/09 05:41:19;;;;;;;6.07;3.13;;;13.60;64.10;;;;;;5084123;28;20511;-73
2021/05/09 05:43:45;;;;;;;6.85;2.20;;;13.80;64.40;;;;;;5082495;28;20027;-73
2021/05/09 05:46:13;;;;;;;2.55;1.90;;;14.00;63.70;;;;;;5078484;28;20039;-72
2021/05/09 05:48:39;;;;;;;4.40;2.20;;;14.10;63.20;;;;;;5081551;28;20020;-72
2021/05/09 05:51:04;;;;;;;2.70;1.70;;;14.30;62.90;;;;;;5082839;28;20043;-73
2021/05/09 05:53:30;;;;;;;5.55;1.83;;;14.30;62.50;;;;;;5086396;28;20024;-74
2021/05/09 05:55:56;;;;;;;4.43;2.28;;;14.30;62.50;;;;;;5084228;28;20035;-73
2021/05/09 05:58:22;;;;;;;3.20;2.10;;;14.30;62.90;;;;;;5083076;28;20032;-73
2021/05/09 06:00:48;;;;;;;2.30;1.65;;;14.30;64.40;;;;;;5082565;28;20160;-73
2021/05/09 06:03:14;;;;;;;5.32;2.03;;;14.30;63.60;;;;;;5081764;28;20104;-72
2021/05/09 06:05:42;;;;;;;3.33;1.95;;;14.30;64.30;;;;;;5079352;28;20688;-72
2021/05/09 06:08:07;;;;;;;2.83;1.85;;;14.30;63.20;;;;;;5078451;28;20035;-73
2021/05/09 06:10:33;;;;;;;4.20;1.90;;;14.40;64.00;;;;;;5080853;28;20031;-72
2021/05/09 06:12:59;;;;;;;4.50;2.58;;;14.40;63.60;;;;;;5078463;28;20662;-73
2021/05/09 06:15:25;;;;;;;4.85;2.47;;;14.50;63.50;;;;;;5082722;28;20032;-73
2021/05/09 06:17:50;;;;;;;2.58;1.88;;;14.50;63.10;;;;;;5082327;28;20066;-73
2021/05/09 06:20:16;;;;;;;3.88;2.13;;;14.60;63.00;;;;;;5078783;28;20020;-73
2021/05/09 06:22:44;;;;;;;2.78;1.90;;;14.60;64.30;;;;;;5084500;28;20032;-73
2021/05/09 06:25:09;;;;;;;5.60;1.95;;;14.60;63.80;;;;;;5082595;28;20047;-73
2021/05/09 06:27:35;;;;;;;2.22;1.50;;;14.60;63.80;;;;;;5084857;28;20015;-73
2021/05/09 06:30:01;;;;;;;2.75;1.75;;;14.60;63.80;;;;;;5084610;28;20085;-73
2021/05/09 06:32:27;;;;;;;3.85;2.03;;;14.60;63.60;;;;;;5080103;28;20564;-72
2021/05/09 06:34:53;;;;;;;2.85;1.80;;;14.60;63.90;;;;;;5084683;28;20028;-73
2021/05/09 06:37:18;;;;;;;2.75;1.90;;;14.70;64.90;;;;;;5072582;28;20020;-73
2021/05/09 06:39:44;;;;;;;4.25;1.83;;;14.70;64.40;;;;;;5079267;28;20027;-73
2021/05/09 06:42:13;;;;;;;6.50;1.60;;;14.80;64.60;;;;;;5071869;28;20027;-73
2021/05/09 06:44:43;;;;;;;2.20;1.50;;;14.80;64.70;;;;;;5079688;28;20035;-73
2021/05/09 06:47:09;;;;;;;1.93;1.50;;;14.80;64.90;;;;;;5080596;28;20089;-73
2021/05/09 06:49:34;;;;;;;2.42;1.65;;;14.80;64.90;;;;;;5082223;28;20752;-73
2021/05/09 06:52:00;;;;;;;2.25;1.50;;;14.80;64.50;;;;;;5082494;28;20398;-72
2021/05/09 06:54:26;;;;;;;4.18;1.65;;;14.80;64.90;;;;;;5082427;28;20035;-73
2021/05/09 06:56:52;;;;;;;3.13;1.50;;;14.80;64.90;;;;;;5080950;28;20020;-74
2021/05/09 06:59:18;;;;;;;2.72;1.52;;;14.90;65.30;;;;;;5078597;28;20063;-85
2021/05/09 07:01:44;;;;;;;2.85;1.88;;;15.00;65.70;;;;;;5076706;28;20054;-77
2021/05/09 07:04:10;;;;;;;2.30;1.65;;;15.10;65.00;;;;;;5069782;28;20047;-76
2021/05/09 07:06:36;;;;;;;3.03;1.60;;;15.30;64.20;;;;;;5077582;28;20012;-79
2021/05/09 07:09:06;;;;;;;4.20;1.88;;;15.40;65.90;;;;;;5081317;28;20515;-78
2021/05/09 07:11:32;;;;;;;2.33;1.55;;;15.70;63.20;;;;;;5074957;28;20046;-79
2021/05/09 07:13:58;;;;;;;1.85;1.40;;;15.90;62.40;;;;;;5080738;28;20510;-78
2021/05/09 07:16:33;;;;;;;1.67;1.38;;;16.10;61.50;;;;;;5083698;28;20020;-84
2021/05/09 07:19:00;;;;;;;1.83;1.25;;;16.30;61.60;;;;;;5080866;28;20337;-82
2021/05/09 07:21:27;;;;;;;1.73;1.48;;;16.40;61.40;;;;;;5079491;28;20027;-85
2021/05/09 07:23:53;;;;;;;2.33;1.30;;;16.50;61.50;;;;;;5079946;28;20073;-77
2021/05/09 07:26:19;;;;;;;2.42;1.35;;;16.60;59.90;;;;;;5072919;28;20051;-80
2021/05/09 07:28:46;;;;;;;3.03;1.40;;;16.70;59.90;;;;;;5075501;28;20028;-79
2021/05/09 07:31:14;;;;;;;4.32;1.50;;;16.80;59.60;;;;;;5076182;28;20043;-79
2021/05/09 07:33:43;;;;;;;2.35;1.40;;;16.90;60.50;;;;;;5083030;28;20633;-77
2021/05/09 07:36:08;;;;;;;2.17;1.40;;;16.90;59.50;;;;;;5079198;28;20029;-83
2021/05/09 07:38:34;;;;;;;2.67;1.25;;;16.90;60.20;;;;;;5084036;28;20039;-78
2021/05/09 07:41:00;;;;;;;1.77;1.33;;;16.90;59.80;;;;;;5077842;28;20081;-79
2021/05/09 07:43:26;;;;;;;2.35;1.45;;;16.90;60.00;;;;;;5082007;28;20012;-81
2021/05/09 07:45:52;;;;;;;3.38;1.85;;;17.00;59.90;;;;;;5081594;28;20028;-78
2021/05/09 07:48:18;;;;;;;1.90;1.48;;;17.00;61.20;;;;;;5083302;28;20543;-79
2021/05/09 07:50:44;;;;;;;1.80;1.20;;;17.00;60.50;;;;;;5078847;28;20040;-87
2021/05/09 07:53:10;;;;;;;1.40;1.30;;;17.00;60.10;;;;;;5078721;28;20107;-80
2021/05/09 07:55:36;;;;;;;3.08;1.33;;;16.90;60.10;;;;;;5085414;28;20028;-81
2021/05/09 07:58:16;;;;;;;2.15;1.35;;;16.90;61.10;;;;;;5086106;28;20024;-80
2021/05/09 08:00:42;;;;;;;4.00;1.38;;;17.00;60.70;;;;;;5081649;28;20069;-75
2021/05/09 08:03:08;;;;;;;6.10;1.30;;;17.00;61.30;;;;;;5084982;28;20032;-78
2021/05/09 08:05:33;;;;;;;2.25;1.45;;;17.10;61.00;;;;;;5087488;28;20031;-79
2021/05/09 08:07:59;;;;;;;2.20;1.27;;;17.10;60.90;;;;;;5086723;28;20028;-75
2021/05/09 08:10:43;;;;;;;1.20;1.00;;;17.30;61.70;;;;;;5073340;28;20029;-82
2021/05/09 08:13:11;;;;;;;2.40;1.20;;;17.30;60.20;;;;;;5081676;28;20036;-80
2021/05/09 08:15:54;;;;;;;1.65;1.10;;;17.40;60.80;;;;;;5082598;28;20020;-84
2021/05/09 08:18:24;;;;;;;3.35;1.30;;;17.50;60.50;;;;;;5081049;28;20063;-83
2021/05/09 08:20:50;;;;;;;1.90;1.27;;;17.50;60.70;;;;;;5086670;28;20037;-82
2021/05/09 08:23:16;;;;;;;3.70;1.17;;;17.60;61.10;;;;;;5085084;28;20062;-84
2021/05/09 08:25:41;;;;;;;0.98;0.82;;;17.80;60.10;;;;;;5087278;28;20054;-82
2021/05/09 08:28:07;;;;;;;1.48;1.10;;;17.80;60.20;;;;;;5081385;28;20059;-83
2021/05/09 08:30:32;;;;;;;1.95;1.20;;;18.00;59.70;;;;;;5078945;28;20032;-82
2021/05/09 08:32:58;;;;;;;1.65;1.20;;;18.10;60.20;;;;;;5077081;28;20659;-82
2021/05/09 08:35:23;;;;;;;1.58;1.08;;;18.10;61.90;;;;;;5081391;28;20023;-88
2021/05/09 08:37:49;;;;;;;2.33;1.55;;;18.20;60.10;;;;;;5077580;28;20024;-86
2021/05/09 08:40:16;;;;;;;1.75;1.30;;;18.30;60.50;;;;;;5084997;28;20085;-84
2021/05/09 08:42:43;;;;;;;1.67;1.38;;;18.40;59.80;;;;;;5082411;28;20021;-83
2021/05/09 08:45:10;;;;;;;1.52;1.27;;;18.50;60.70;;;;;;5081698;28;20119;-82
2021/05/09 08:47:37;;;;;;;2.03;0.90;;;18.60;59.70;;;;;;5086589;28;20048;-83
2021/05/09 08:50:14;;;;;;;1.50;1.17;;;18.70;58.80;;;;;;5084405;28;20110;-77
2021/05/09 08:52:42;;;;;;;4.15;1.10;;;18.70;58.80;;;;;;5085766;28;20097;-81
2021/05/09 08:55:23;;;;;;;1.65;1.10;;;18.80;57.90;;;;;;5081218;28;20036;-76
2021/05/09 08:57:49;;;;;;;1.00;0.88;;;18.90;59.00;;;;;;5070168;28;20035;-79
2021/05/09 09:00:16;;;;;;;1.58;1.10;;;18.90;58.50;;;;;;5071769;28;20070;-77
2021/05/09 09:02:43;;;;;;;3.08;0.90;;;19.00;60.20;;;;;;5075780;28;20055;-77
2021/05/09 09:05:11;;;;;;;1.88;1.05;;;19.10;58.60;;;;;;5074714;28;20131;-77
2021/05/09 09:07:51;;;;;;;1.00;0.90;;;19.20;58.70;;;;;;5070216;28;20059;-78
2021/05/09 09:10:31;;;;;;;1.57;1.03;;;19.20;58.70;;;;;;5073876;28;20054;-77
2021/05/09 09:13:01;;;;;;;2.58;0.70;;;19.30;58.30;;;;;;5075796;28;20374;-77
2021/05/09 09:15:48;;;;;;;0.80;0.80;;;19.40;58.10;;;;;;5076190;28;20039;-78
2021/05/09 09:18:34;;;;;;;0.82;0.80;;;19.50;58.90;;;;;;5071915;28;20035;-79
2021/05/09 09:21:28;;;;;;;1.67;1.08;;;19.70;58.40;;;;;;5072208;28;20020;-74
2021/05/09 09:24:07;;;;;;;1.15;0.85;;;19.70;57.50;;;;;;5076631;28;20557;-75
2021/05/09 09:26:39;;;;;;;1.27;0.80;;;19.90;56.70;;;;;;5075969;28;20025;-75
2021/05/09 09:29:36;;;;;;;0.98;0.70;;;19.90;57.50;;;;;;5074819;28;20508;-74
2021/05/09 09:32:04;;;;;;;0.90;0.88;;;20.10;57.80;;;;;;5075576;28;20050;-76
2021/05/09 09:34:40;;;;;;;1.98;0.98;;;20.10;57.40;;;;;;5077568;28;20036;-77
2021/05/09 09:37:07;;;;;;;1.80;0.98;;;20.20;58.20;;;;;;5077814;28;20024;-77
2021/05/09 09:39:57;;;;;;;3.17;1.30;;;20.30;56.80;;;;;;5070095;28;20390;-78
2021/05/09 09:42:49;;;;;;;0.75;0.70;;;20.40;56.90;;;;;;5070164;28;20035;-74
2021/05/09 09:45:30;;;;;;;;;;;20.40;57.60;;;;;;5074687;28;20081;-80
2021/05/09 09:48:01;;;;;;;3.40;0.90;;;20.50;56.60;;;;;;5074367;28;19923;-78
2021/05/09 09:50:46;;;;;;;1.75;0.80;;;20.60;55.80;;;;;;5072354;28;20036;-77
2021/05/09 09:53:38;;;;;;;7.25;0.80;;;20.80;56.20;;;;;;5074344;28;20067;-78
2021/05/09 09:56:05;;;;;;;1.75;0.80;;;20.90;54.90;;;;;;5073193;28;20036;-77
2021/05/09 09:58:53;;;;;;;3.85;1.38;;;20.90;54.10;;;;;;5073521;28;20502;-78
2021/05/09 10:01:28;;;;;;;0.73;0.73;;;20.90;54.90;;;;;;5070033;28;20039;-77
2021/05/09 10:03:58;;;;;;;1.20;0.73;;;21.00;56.00;;;;;;5076410;28;20035;-78
2021/05/09 10:06:31;;;;;;;2.30;0.70;;;21.00;55.20;;;;;;5073726;28;20060;-79
2021/05/09 10:09:00;;;;;;;0.90;0.80;;;21.10;54.70;;;;;;5075410;28;20117;-77
2021/05/09 10:11:28;;;;;;;2.95;0.98;;;21.20;55.10;;;;;;5074068;28;20115;-78
2021/05/09 10:13:54;;;;;;;0.73;0.70;;;21.20;54.10;;;;;;5073043;28;20067;-79
2021/05/09 10:16:22;;;;;;;0.50;0.50;;;21.20;54.50;;;;;;5073208;28;20050;-78
2021/05/09 10:18:51;;;;;;;0.70;0.70;;;21.20;54.80;;;;;;5075143;28;20482;-80
2021/05/09 10:21:17;;;;;;;0.55;0.55;;;21.30;54.50;;;;;;5073489;28;20029;-79
2021/05/09 10:24:18;;;;;;;0.82;0.80;;;21.40;54.30;;;;;;5074356;28;20026;-79
2021/05/09 10:26:51;;;;;;;1.77;0.70;;;21.50;54.70;;;;;;5075678;28;20533;-81
2021/05/09 10:29:35;;;;;;;2.63;0.80;;;21.70;54.00;;;;;;5077831;28;20028;-76
2021/05/09 10:32:06;;;;;;;0.70;0.70;;;21.90;53.40;;;;;;5073420;28;20025;-76
2021/05/09 10:34:57;;;;;;;0.55;0.50;;;22.10;53.00;;;;;;5077811;28;20020;-74
2021/05/09 10:40:18;;;;;;;0.60;0.60;;;22.40;53.10;;;;;;5079953;28;20028;-75
2021/05/09 10:42:47;;;;;;;1.35;0.90;;;22.50;53.50;;;;;;5068623;28;20047;-76
2021/05/09 10:45:55;;;;;;;5.15;0.90;;;22.60;51.90;;;;;;5071293;28;20032;-75
2021/05/09 10:48:21;;;;;;;3.63;1.33;;;22.80;50.70;;;;;;5073912;28;20032;-75
2021/05/09 10:50:49;;;;;;;0.88;0.88;;;22.90;53.00;;;;;;5083748;28;20101;-75
2021/05/09 10:53:36;;;;;;;1.38;0.90;;;23.10;51.10;;;;;;5078259;28;20581;-74
2021/05/09 10:56:14;;;;;;;1.83;0.90;;;23.20;50.20;;;;;;5076676;28;20495;-74
2021/05/09 10:58:46;;;;;;;1.13;0.88;;;23.40;52.00;;;;;;5080644;28;21958;-74
2021/05/09 11:01:20;;;;;;;0.98;0.80;;;23.50;49.20;;;;;;5068636;28;20042;-75
2021/05/09 11:03:48;;;;;;;1.48;0.90;;;23.60;48.80;;;;;;5084396;28;20028;-75
2021/05/09 11:06:19;;;;;;;1.85;1.15;;;23.70;49.60;;;;;;5081389;28;20077;-75
2021/05/09 11:08:45;;;;;;;2.47;0.90;;;23.90;50.50;;;;;;5070869;28;20148;-76
2021/05/09 11:11:34;;;;;;;0.85;0.85;;;24.10;48.80;;;;;;5068635;28;20033;-74
2021/05/09 11:14:03;;;;;;;1.00;0.60;;;24.30;48.60;;;;;;5077719;28;20565;-73
2021/05/09 11:16:30;;;;;;;0.65;0.65;;;24.40;47.20;;;;;;5081991;28;20118;-73
2021/05/09 11:18:59;;;;;;;1.77;0.80;;;24.50;47.00;;;;;;5073093;28;20020;-73
2021/05/09 11:21:29;;;;;;;0.60;0.60;;;24.80;45.60;;;;;;5079416;28;20364;-73
2021/05/09 11:23:54;;;;;;;0.95;0.80;;;24.90;44.80;;;;;;5082150;28;20051;-74
2021/05/09 11:26:28;;;;;;;0.85;0.77;;;25.30;44.90;;;;;;5070578;28;20043;-74
2021/05/09 11:29:15;;;;;;;0.90;0.75;;;25.60;45.00;;;;;;5071175;28;20024;-74
2021/05/09 11:31:43;;;;;;;2.00;0.95;;;26.10;43.30;;;;;;5072508;28;20119;-74
2021/05/09 11:34:10;;;;;;;0.75;0.68;;;26.60;41.00;;;;;;5067721;28;20024;-74
2021/05/09 11:36:36;;;;;;;1.30;1.08;;;27.00;40.60;;;;;;5074608;28;20153;-75
2021/05/09 11:39:13;;;;;;;1.45;0.80;;;27.40;40.80;;;;;;5080127;28;20025;-74
2021/05/09 11:41:59;;;;;;;0.90;0.85;;;28.10;40.50;;;;;;5084557;28;20020;-74
2021/05/09 11:44:33;;;;;;;2.20;1.25;;;28.80;38.80;;;;;;5072189;28;20032;-75
2021/05/09 11:46:58;;;;;;;1.15;0.73;;;29.30;39.70;;;;;;5075164;28;20106;-75
2021/05/09 11:49:26;;;;;;;1.35;0.90;;;29.50;37.00;;;;;;5074163;28;20749;-74
2021/05/09 11:51:54;;;;;;;0.90;0.90;;;29.90;38.70;;;;;;5079528;28;20094;-75
2021/05/09 11:54:21;;;;;;;1.08;0.98;;;30.50;38.20;;;;;;5082083;28;20482;-75
2021/05/09 11:56:56;;;;;;;1.00;0.90;;;31.00;36.90;;;;;;5082614;28;20479;-75
2021/05/09 11:59:43;;;;;;;2.03;1.20;;;31.60;37.50;;;;;;5073097;28;20364;-74
2021/05/09 12:02:18;;;;;;;0.98;0.90;;;32.10;33.50;;;;;;5077755;28;20115;-73
2021/05/09 12:04:55;;;;;;;2.47;0.80;;;32.30;34.30;;;;;;5075252;28;20445;-76
2021/05/09 12:07:35;;;;;;;1.35;0.90;;;31.90;32.00;;;;;;5085497;28;20283;-76
2021/05/09 12:10:09;;;;;;;1.13;1.00;;;32.20;34.40;;;;;;5086733;28;20097;-76
2021/05/09 12:12:37;;;;;;;1.00;0.93;;;32.70;32.10;;;;;;5082693;28;20107;-77
2021/05/09 12:15:09;;;;;;;1.13;1.00;;;33.00;31.40;;;;;;5079998;28;20028;-75
2021/05/09 12:17:43;;;;;;;1.33;1.05;;;33.40;31.10;;;;;;5085718;28;20016;-76
2021/05/09 12:20:09;;;;;;;4.32;1.20;;;33.90;29.80;;;;;;5082243;28;20028;-76
2021/05/09 12:22:39;;;;;;;0.80;0.80;;;34.70;30.00;;;;;;5081940;28;20516;-76
2021/05/09 12:25:05;;;;;;;1.25;1.15;;;35.40;29.30;;;;;;5083685;28;20028;-77
2021/05/09 12:27:31;;;;;;;1.13;1.05;;;35.50;28.60;;;;;;5086917;28;20123;-76
2021/05/09 12:29:58;;;;;;;1.65;1.10;;;35.10;29.40;;;;;;5073020;28;20112;-76
2021/05/09 12:32:25;;;;;;;0.80;0.80;;;35.20;28.90;;;;;;5079527;28;20038;-77
2021/05/09 12:35:09;;;;;;;1.10;1.00;;;35.20;28.80;;;;;;5086926;28;20052;-77
2021/05/09 12:37:41;;;;;;;1.67;0.90;;;35.00;28.30;;;;;;5091174;28;20039;-76
2021/05/09 12:40:29;;;;;;;1.83;1.10;;;34.90;28.90;;;;;;5087528;28;20020;-76
2021/05/09 12:42:57;;;;;;;1.10;1.00;;;34.60;28.50;;;;;;5091877;28;20028;-76
2021/05/09 12:45:31;;;;;;;0.80;0.80;;;35.00;29.20;;;;;;5090076;28;20054;-76
2021/05/09 12:48:28;;;;;;;1.40;1.23;;;34.70;28.70;;;;;;5091302;28;20028;-76
2021/05/09 12:51:05;;;;;;;2.45;2.10;;;35.50;29.00;;;;;;5087956;28;20036;-75
2021/05/09 12:53:42;;;;;;;1.38;0.90;;;35.80;27.80;;;;;;5086397;28;20020;-76
2021/05/09 12:56:25;;;;;;;1.00;0.90;;;35.40;27.80;;;;;;5085933;28;20545;-76
2021/05/09 12:59:04;;;;;;;0.85;0.75;;;34.80;27.30;;;;;;5084710;28;20109;-76
2021/05/09 13:01:31;;;;;;;0.98;0.90;;;33.90;29.00;;;;;;5087449;28;20344;-77